METAR rapporter

 

EKAH - Tirstrup (civ/Mi, Denmark
Afstand fra stationen: SSV 25km
Opdateret: 16/01/2022 22:50
Få skyer
Få skyer
 Vind fra V
Vind: V 37 km/h, Vindstød: 61 km/h
Temperatur: 6°C
Kuldeindeks: 1°C
Dugpunkt: 3°C
Fugtighed: 81%
Barometer: 1010 hPa
Skydække: Få skyer
Sigtbarhed: 10 km
Skyhøjde: Få skyer 671 m
Få skyer 4267 m
2022/01/16 21:50 EKAH 162150Z AUTO 28020G33KT 9999 FEW022/// FEW140/// 06/03 Q1010
EKYT - Alborg, Denmark
Afstand fra stationen: NV 91km
Opdateret: 16/01/2022 23:03
Overskyet
Overskyet
 Vind fra V
Vind: V 48 km/h, Vindstød: 78 km/h
Temperatur: 7°C
Kuldeindeks: 2°C
Dugpunkt: 4°C
Fugtighed: 81%
Barometer: 1006 hPa
Skydække: Overskyet
Sigtbarhed: 10 km
Skyhøjde: Mest skyet 701 m
Overskyet 884 m
2022/01/16 22:03 EKYT 162203Z AUTO 27026G42KT 9999 BKN023/// OVC029/// 07/04 Q1006
EKKA - Karup (dan-Afb), Denmark
Afstand fra stationen: V 107km
Opdateret: 16/01/2022 22:55
Mest skyet
Mest skyet
 Vind fra V
Vind: V 41 km/h, Vindstød: 61 km/h
Temperatur: 6°C
Kuldeindeks: 1°C
Dugpunkt: 3°C
Fugtighed: 81%
Barometer: 1012 hPa
Skydække: Mest skyet
Sigtbarhed: 8 km
Skyhøjde: Mest skyet 518 m
2022/01/16 21:55 EKKA 162155Z AUTO 26022G33KT 8000 BKN017/// 06/03 Q1012
 
EKOD - Odense/Beldringe, Denmark
Afstand fra stationen: SSV 116km
Opdateret: 16/01/2022 19:50
Ikke opdateret
Mest skyet
Mest skyet
 Vind fra V
Vind: V 30 km/h, Vindstød: 54 km/h
Temperatur: 5°C
Kuldeindeks: 0°C
Dugpunkt: 3°C
Fugtighed: 87%
Barometer: 1014 hPa
Skydække: Mest skyet
Sigtbarhed: 10 km
Skyhøjde: Få skyer 792 m
Mest skyet 914 m
2022/01/16 18:50 EKOD 161850Z 28016G29KT 9999 FEW026 BKN030 05/03 Q1014
EKBI - Billund Airport, Denmark
Afstand fra stationen: SV 134km
Opdateret: 16/01/2022 22:50
Mest skyet
Mest skyet
 Vind fra V
Vind: V 46 km/h
Temperatur: 6°C
Kuldeindeks: 1°C
Dugpunkt: 3°C
Fugtighed: 81%
Barometer: 1014 hPa
Skydække: Mest skyet
Sigtbarhed: 10 km
Skyhøjde: Mest skyet 518 m
Mest skyet 5791 m
2022/01/16 21:50 EKBI 162150Z AUTO 28025KT 9999 BKN017/// BKN190/// 06/03 Q1014
EKCH - Copenhagen/Kastr, Denmark
Afstand fra stationen: SØ 148km
Opdateret: 16/01/2022 22:50
Mest skyet
Mest skyet
 Vind fra V
Vind: V 43 km/h, Vindstød: 63 km/h
Temperatur: 5°C
Kuldeindeks: -1°C
Dugpunkt: 1°C
Fugtighed: 76%
Barometer: 1009 hPa
Skydække: Mest skyet
Sigtbarhed: 10 km
Skyhøjde: Få skyer 3353 m
Mest skyet 4267 m
Mest skyet 5182 m
2022/01/16 21:50 EKCH 162150Z AUTO 27023G34KT 9999 FEW110/// BKN140/// BKN170/// 05/01 Q1009 TEMPO 28020G35KT